createdAt,value
2016-12-14T00:00:46.687Z,0
2016-12-14T00:01:46.675Z,0
2016-12-14T00:02:46.657Z,0
2016-12-14T00:03:46.643Z,0
2016-12-14T00:04:46.630Z,0
2016-12-14T00:05:46.614Z,0
2016-12-14T00:06:46.601Z,0
2016-12-14T00:07:46.586Z,0
2016-12-14T00:08:46.570Z,0
2016-12-14T00:09:46.559Z,0
2016-12-14T00:10:46.537Z,0
2016-12-14T00:11:46.526Z,0
2016-12-14T00:12:46.514Z,0
2016-12-14T00:13:46.495Z,0
2016-12-14T00:14:46.478Z,0
2016-12-14T00:15:46.789Z,0
2016-12-14T00:16:46.458Z,0
2016-12-14T00:17:46.439Z,0
2016-12-14T00:18:46.420Z,0
2016-12-14T00:19:46.407Z,0
2016-12-14T00:20:46.389Z,0
2016-12-14T00:21:46.375Z,0
2016-12-14T00:22:46.363Z,0
2016-12-14T00:23:46.351Z,0
2016-12-14T00:24:46.332Z,0
2016-12-14T00:25:46.318Z,0
2016-12-14T00:26:46.302Z,0
2016-12-14T00:27:46.320Z,0
2016-12-14T00:28:46.272Z,0
2016-12-14T00:29:46.254Z,0
2016-12-14T00:30:46.240Z,0
2016-12-14T00:31:46.229Z,0
2016-12-14T00:32:46.212Z,0
2016-12-14T00:33:46.327Z,0
2016-12-14T00:34:46.181Z,0
2016-12-14T00:35:46.717Z,0
2016-12-14T00:36:46.153Z,0
2016-12-14T00:37:46.137Z,0
2016-12-14T00:38:46.661Z,0
2016-12-14T00:39:46.110Z,0
2016-12-14T00:40:46.095Z,0
2016-12-14T00:41:46.673Z,0
2016-12-14T00:42:46.061Z,0
2016-12-14T00:43:46.049Z,0
2016-12-14T00:44:46.678Z,0
2016-12-14T00:45:46.020Z,0
2016-12-14T00:46:46.005Z,0
2016-12-14T00:47:46.619Z,0
2016-12-14T00:48:45.971Z,0
2016-12-14T00:49:45.960Z,0
2016-12-14T00:50:46.964Z,0
2016-12-14T00:51:45.932Z,0
2016-12-14T00:52:45.924Z,0
2016-12-14T00:53:46.583Z,0
2016-12-14T00:54:46.159Z,0
2016-12-14T00:55:45.871Z,0
2016-12-14T00:56:46.874Z,0
2016-12-14T00:57:45.842Z,0
2016-12-14T00:58:45.826Z,0
2016-12-14T00:59:46.726Z,0
2016-12-14T01:00:45.797Z,0
2016-12-14T01:01:45.812Z,0
2016-12-14T01:02:46.289Z,0
2016-12-14T01:03:45.753Z,0
2016-12-14T01:04:45.738Z,0
2016-12-14T01:05:46.795Z,0
2016-12-14T01:06:45.711Z,0
2016-12-14T01:07:45.696Z,0
2016-12-14T01:08:46.490Z,0
2016-12-14T01:09:45.663Z,0
2016-12-14T01:10:46.750Z,0
2016-12-14T01:11:45.632Z,0
2016-12-14T01:12:45.618Z,0
2016-12-14T01:13:46.176Z,0
2016-12-14T01:14:45.588Z,0
2016-12-14T01:15:45.574Z,0
2016-12-14T01:16:46.105Z,0
2016-12-14T01:17:45.556Z,0
2016-12-14T01:18:45.537Z,0
2016-12-14T01:19:46.066Z,0
2016-12-14T01:20:45.502Z,0
2016-12-14T01:21:45.490Z,0
2016-12-14T01:22:46.002Z,0
2016-12-14T01:23:45.453Z,0
2016-12-14T01:24:45.442Z,0
2016-12-14T01:25:46.165Z,0
2016-12-14T01:26:45.411Z,0
2016-12-14T01:27:45.396Z,0
2016-12-14T01:28:46.234Z,0
2016-12-14T01:29:45.368Z,0
2016-12-14T01:30:45.354Z,0
2016-12-14T01:31:46.081Z,0
2016-12-14T01:32:45.325Z,0
2016-12-14T01:33:45.307Z,0
2016-12-14T01:34:46.087Z,0
2016-12-14T01:35:45.281Z,0
2016-12-14T01:36:45.264Z,0
2016-12-14T01:37:46.297Z,0
2016-12-14T01:38:45.234Z,0
2016-12-14T01:39:45.224Z,0
2016-12-14T01:40:46.301Z,0
2016-12-14T01:41:45.190Z,0
2016-12-14T01:42:45.177Z,0
2016-12-14T01:43:46.059Z,0
2016-12-14T01:44:45.143Z,0
2016-12-14T01:45:45.130Z,0
2016-12-14T01:46:46.117Z,0
2016-12-14T01:47:45.107Z,0
2016-12-14T01:48:45.087Z,0
2016-12-14T01:49:46.042Z,0
2016-12-14T01:50:45.061Z,0
2016-12-14T01:51:45.050Z,0
2016-12-14T01:52:46.005Z,0
2016-12-14T01:53:45.018Z,0
2016-12-14T01:54:45.006Z,0
2016-12-14T01:55:46.030Z,0
2016-12-14T01:56:44.971Z,0
2016-12-14T01:57:44.957Z,0
2016-12-14T01:58:45.929Z,0
2016-12-14T01:59:44.931Z,0
2016-12-14T02:00:44.914Z,0
2016-12-14T02:01:45.398Z,0
2016-12-14T02:02:44.888Z,0
2016-12-14T02:03:45.269Z,0
2016-12-14T02:04:44.882Z,0
2016-12-14T02:05:44.972Z,0
2016-12-14T02:06:44.830Z,0
2016-12-14T02:07:44.813Z,0
2016-12-14T02:08:44.936Z,0
2016-12-14T02:09:44.782Z,0
2016-12-14T02:10:44.898Z,0
2016-12-14T02:11:44.759Z,0
2016-12-14T02:12:44.737Z,0
2016-12-14T02:13:45.041Z,0
2016-12-14T02:14:44.711Z,0
2016-12-14T02:15:45.499Z,0
2016-12-14T02:16:44.679Z,0
2016-12-14T02:17:44.687Z,0
2016-12-14T02:18:45.211Z,0
2016-12-14T02:19:44.642Z,0
2016-12-14T02:20:44.626Z,0
2016-12-14T02:21:45.297Z,0
2016-12-14T02:22:44.628Z,0
2016-12-14T02:23:44.578Z,0
2016-12-14T02:24:45.140Z,0
2016-12-14T02:25:44.550Z,0
2016-12-14T02:26:44.541Z,0
2016-12-14T02:27:45.196Z,0
2016-12-14T02:28:44.508Z,0
2016-12-14T02:29:44.492Z,0
2016-12-14T02:30:44.595Z,0
2016-12-14T02:31:45.741Z,0
2016-12-14T02:32:44.451Z,0
2016-12-14T02:33:44.959Z,0
2016-12-14T02:34:44.425Z,0
2016-12-14T02:35:44.722Z,0
2016-12-14T02:36:45.525Z,0
2016-12-14T02:37:44.700Z,0
2016-12-14T02:38:44.365Z,0
2016-12-14T02:39:44.911Z,0
2016-12-14T02:40:44.335Z,0
2016-12-14T02:41:44.320Z,0
2016-12-14T02:42:44.418Z,0
2016-12-14T02:43:44.868Z,0
2016-12-14T02:44:44.315Z,0
2016-12-14T02:45:44.261Z,0
2016-12-14T02:46:53.428Z,0
2016-12-14T02:47:44.235Z,0
2016-12-14T02:48:44.518Z,0
2016-12-14T02:49:44.206Z,0
2016-12-14T02:50:44.197Z,0
2016-12-14T02:51:44.654Z,0
2016-12-14T02:52:44.168Z,0
2016-12-14T02:53:44.155Z,0
2016-12-14T02:54:44.707Z,0
2016-12-14T02:55:44.125Z,0
2016-12-14T02:56:44.103Z,0
2016-12-14T02:57:44.428Z,0
2016-12-14T02:58:44.661Z,0
2016-12-14T02:59:45.002Z,0
2016-12-14T03:00:44.811Z,0
2016-12-14T03:01:44.581Z,0
2016-12-14T03:02:44.769Z,0
2016-12-14T03:03:44.379Z,0
2016-12-14T03:04:44.449Z,0
2016-12-14T03:05:44.561Z,0
2016-12-14T03:06:44.585Z,0
2016-12-14T03:07:44.816Z,0
2016-12-14T03:08:44.350Z,0
2016-12-14T03:09:44.650Z,0
2016-12-14T03:10:44.336Z,0
2016-12-14T03:11:44.545Z,0
2016-12-14T03:12:44.434Z,0
2016-12-14T03:13:44.401Z,0
2016-12-14T03:14:44.167Z,0
2016-12-14T03:15:44.464Z,0
2016-12-14T03:16:44.520Z,0
2016-12-14T03:17:44.313Z,0
2016-12-14T03:18:44.253Z,0
2016-12-14T03:19:44.483Z,0
2016-12-14T03:20:44.319Z,0
2016-12-14T03:21:44.326Z,0
2016-12-14T03:22:44.264Z,0
2016-12-14T03:23:44.833Z,0
2016-12-14T03:24:44.032Z,0
2016-12-14T03:25:44.405Z,0
2016-12-14T03:26:44.245Z,0
2016-12-14T03:27:44.275Z,0
2016-12-14T03:28:44.031Z,0
2016-12-14T03:29:44.463Z,0
2016-12-14T03:30:44.140Z,0
2016-12-14T03:31:43.931Z,0
2016-12-14T03:32:43.875Z,0
2016-12-14T03:33:43.583Z,0
2016-12-14T03:34:43.571Z,0
2016-12-14T03:35:43.974Z,0
2016-12-14T03:36:43.853Z,0
2016-12-14T03:37:43.527Z,0
2016-12-14T03:38:43.782Z,0
2016-12-14T03:39:43.496Z,0
2016-12-14T03:40:43.483Z,0
2016-12-14T03:41:43.882Z,0
2016-12-14T03:42:43.453Z,0
2016-12-14T03:43:43.441Z,0
2016-12-14T03:44:43.689Z,0
2016-12-14T03:45:43.414Z,0
2016-12-14T03:46:43.396Z,0
2016-12-14T03:47:43.380Z,0
2016-12-14T03:48:43.372Z,0
2016-12-14T03:49:43.357Z,0
2016-12-14T03:50:43.349Z,0
2016-12-14T03:51:43.327Z,0
2016-12-14T03:52:43.315Z,0
2016-12-14T03:53:43.304Z,0
2016-12-14T03:54:43.283Z,0
2016-12-14T03:55:43.316Z,0
2016-12-14T03:56:43.255Z,0
2016-12-14T03:57:43.240Z,0
2016-12-14T03:58:43.227Z,0
2016-12-14T03:59:43.211Z,0
2016-12-14T04:00:43.199Z,0
2016-12-14T04:01:43.183Z,0
2016-12-14T04:02:43.172Z,0
2016-12-14T04:03:43.183Z,0
2016-12-14T04:04:43.143Z,0
2016-12-14T04:05:43.129Z,0
2016-12-14T04:06:43.109Z,0
2016-12-14T04:07:43.106Z,0
2016-12-14T04:08:43.084Z,0
2016-12-14T04:09:43.071Z,0
2016-12-14T04:10:43.055Z,0
2016-12-14T04:11:43.047Z,0
2016-12-14T04:12:43.056Z,0
2016-12-14T04:13:43.015Z,0
2016-12-14T04:14:43.000Z,0
2016-12-14T04:15:43.307Z,0
2016-12-14T04:16:42.970Z,0
2016-12-14T04:17:42.962Z,0
2016-12-14T04:18:42.942Z,0
2016-12-14T04:19:42.927Z,0
2016-12-14T04:20:42.919Z,0
2016-12-14T04:21:42.904Z,0
2016-12-14T04:22:42.886Z,0
2016-12-14T04:23:42.868Z,0
2016-12-14T04:24:42.858Z,0
2016-12-14T04:25:42.843Z,0
2016-12-14T04:26:42.827Z,0
2016-12-14T04:27:42.838Z,0
2016-12-14T04:28:42.803Z,0
2016-12-14T04:29:42.793Z,0
2016-12-14T04:30:42.775Z,0
2016-12-14T04:31:42.758Z,0
2016-12-14T04:32:42.751Z,0
2016-12-14T04:33:42.729Z,0
2016-12-14T04:34:42.741Z,0
2016-12-14T04:35:42.704Z,0
2016-12-14T04:36:42.695Z,0
2016-12-14T04:37:42.677Z,0
2016-12-14T04:38:42.658Z,0
2016-12-14T04:39:42.651Z,0
2016-12-14T04:40:42.631Z,0
2016-12-14T04:41:42.618Z,0
2016-12-14T04:42:42.603Z,0
2016-12-14T04:43:42.591Z,0
2016-12-14T04:44:42.576Z,0
2016-12-14T04:45:42.557Z,0
2016-12-14T04:46:42.550Z,0
2016-12-14T04:47:42.531Z,0
2016-12-14T04:48:42.513Z,0
2016-12-14T04:49:42.512Z,0
2016-12-14T04:50:42.489Z,0
2016-12-14T04:51:42.473Z,0
2016-12-14T04:52:42.481Z,0
2016-12-14T04:53:42.445Z,0
2016-12-14T04:54:42.433Z,0
2016-12-14T04:55:42.421Z,0
2016-12-14T04:56:42.403Z,0
2016-12-14T04:57:42.704Z,0
2016-12-14T04:58:42.372Z,0
2016-12-14T04:59:42.355Z,0
2016-12-14T05:00:42.342Z,0
2016-12-14T05:01:42.329Z,0
2016-12-14T05:02:42.316Z,0
2016-12-14T05:03:42.296Z,0
2016-12-14T05:04:42.288Z,0
2016-12-14T05:05:42.269Z,0
2016-12-14T05:06:42.259Z,0
2016-12-14T05:07:42.559Z,0
2016-12-14T05:08:42.230Z,0
2016-12-14T05:09:42.215Z,0
2016-12-14T05:10:42.202Z,0
2016-12-14T05:11:42.193Z,0
2016-12-14T05:12:42.169Z,0
2016-12-14T05:13:42.156Z,0
2016-12-14T05:14:42.138Z,0
2016-12-14T05:15:42.126Z,0
2016-12-14T05:16:42.112Z,0
2016-12-14T05:17:42.102Z,0
2016-12-14T05:18:42.395Z,0
2016-12-14T05:19:42.071Z,0
2016-12-14T05:20:42.056Z,0
2016-12-14T05:21:42.039Z,0
2016-12-14T05:22:42.024Z,0
2016-12-14T05:23:42.013Z,0
2016-12-14T05:24:42.000Z,0
2016-12-14T05:25:41.982Z,0
2016-12-14T05:26:41.968Z,0
2016-12-14T05:27:41.954Z,0
2016-12-14T05:28:41.940Z,0
2016-12-14T05:29:41.928Z,0
2016-12-14T05:30:41.913Z,0
2016-12-14T05:31:41.896Z,0
2016-12-14T05:32:41.880Z,0
2016-12-14T05:33:41.867Z,0
2016-12-14T05:34:41.886Z,0
2016-12-14T05:35:41.841Z,0
2016-12-14T05:36:41.846Z,0
2016-12-14T05:37:41.808Z,0
2016-12-14T05:38:41.792Z,0
2016-12-14T05:39:41.775Z,0
2016-12-14T05:40:41.769Z,0
2016-12-14T05:41:41.750Z,0
2016-12-14T05:42:41.737Z,0
2016-12-14T05:43:41.717Z,0
2016-12-14T05:44:41.706Z,0
2016-12-14T05:45:41.692Z,0
2016-12-14T05:46:41.677Z,0
2016-12-14T05:47:41.662Z,0
2016-12-14T05:48:41.648Z,0
2016-12-14T05:49:41.636Z,0
2016-12-14T05:50:41.615Z,0
2016-12-14T05:51:41.597Z,0
2016-12-14T05:52:41.596Z,0
2016-12-14T05:53:41.576Z,0
2016-12-14T05:54:41.564Z,0
2016-12-14T05:55:41.545Z,0
2016-12-14T05:56:41.530Z,0
2016-12-14T05:57:41.515Z,0
2016-12-14T05:58:41.500Z,0
2016-12-14T05:59:41.488Z,0
2016-12-14T06:00:41.471Z,0
2016-12-14T06:01:41.458Z,0
2016-12-14T06:02:41.443Z,0
2016-12-14T06:03:41.435Z,0
2016-12-14T06:04:41.416Z,0
2016-12-14T06:05:41.397Z,0
2016-12-14T06:06:41.387Z,0
2016-12-14T06:07:41.689Z,0
2016-12-14T06:08:41.355Z,0
2016-12-14T06:09:41.341Z,0
2016-12-14T06:10:41.330Z,0
2016-12-14T06:11:41.319Z,0
2016-12-14T06:12:41.301Z,0
2016-12-14T06:13:41.284Z,0
2016-12-14T06:14:41.272Z,0
2016-12-14T06:15:41.253Z,0
2016-12-14T06:16:41.247Z,0
2016-12-14T06:17:41.222Z,0
2016-12-14T06:18:41.214Z,0
2016-12-14T06:19:41.199Z,0
2016-12-14T06:20:41.186Z,0
2016-12-14T06:21:41.170Z,0
2016-12-14T06:22:41.155Z,0
2016-12-14T06:23:41.140Z,0
2016-12-14T06:24:41.129Z,0
2016-12-14T06:25:41.114Z,0
2016-12-14T06:26:41.101Z,0
2016-12-14T06:27:41.080Z,0
2016-12-14T06:28:41.069Z,0
2016-12-14T06:29:41.052Z,0
2016-12-14T06:30:41.042Z,0
2016-12-14T06:31:41.022Z,0
2016-12-14T06:32:41.014Z,0
2016-12-14T06:33:41.020Z,0
2016-12-14T06:34:40.977Z,0
2016-12-14T06:35:40.996Z,0
2016-12-14T06:36:40.955Z,4
2016-12-14T06:37:40.936Z,4
2016-12-14T06:38:40.920Z,0
2016-12-14T06:39:40.913Z,4
2016-12-14T06:40:40.904Z,4
2016-12-14T06:41:40.881Z,4
2016-12-14T06:42:40.869Z,4
2016-12-14T06:43:40.854Z,8
2016-12-14T06:44:40.837Z,8
2016-12-14T06:45:40.825Z,12
2016-12-14T06:46:40.813Z,16
2016-12-14T06:47:40.792Z,20
2016-12-14T06:48:40.779Z,20
2016-12-14T06:49:40.762Z,20
2016-12-14T06:50:40.751Z,24
2016-12-14T06:51:40.740Z,28
2016-12-14T06:52:40.720Z,24
2016-12-14T06:53:40.733Z,20
2016-12-14T06:54:40.712Z,24
2016-12-14T06:55:40.681Z,28
2016-12-14T06:56:40.673Z,28
2016-12-14T06:57:40.646Z,28
2016-12-14T06:58:40.643Z,28
2016-12-14T06:59:40.625Z,32
2016-12-14T07:00:40.922Z,44
2016-12-14T07:01:40.593Z,48
2016-12-14T07:02:40.903Z,52
2016-12-14T07:03:40.563Z,56
2016-12-14T07:04:40.552Z,64
2016-12-14T07:05:40.543Z,68
2016-12-14T07:06:40.528Z,72
2016-12-14T07:07:40.507Z,84
2016-12-14T07:08:40.491Z,88
2016-12-14T07:09:40.838Z,88
2016-12-14T07:10:40.468Z,92
2016-12-14T07:11:40.766Z,100
2016-12-14T07:12:40.434Z,104
2016-12-14T07:13:40.424Z,108
2016-12-14T07:14:40.408Z,112
2016-12-14T07:15:40.394Z,120
2016-12-14T07:16:40.376Z,112
2016-12-14T07:17:40.366Z,124
2016-12-14T07:18:40.349Z,128
2016-12-14T07:19:40.333Z,128
2016-12-14T07:20:40.326Z,128
2016-12-14T07:21:40.306Z,124
2016-12-14T07:22:40.287Z,128
2016-12-14T07:23:40.282Z,140
2016-12-14T07:24:40.588Z,152
2016-12-14T07:25:40.273Z,168
2016-12-14T07:26:40.244Z,184
2016-12-14T07:27:40.221Z,208
2016-12-14T07:28:40.211Z,216
2016-12-14T07:29:40.194Z,224
2016-12-14T07:30:40.178Z,224
2016-12-14T07:31:40.478Z,244
2016-12-14T07:32:40.157Z,280
2016-12-14T07:33:40.134Z,300
2016-12-14T07:34:40.124Z,304
2016-12-14T07:35:40.109Z,308
2016-12-14T07:36:40.091Z,320
2016-12-14T07:37:40.080Z,332
2016-12-14T07:38:40.064Z,328
2016-12-14T07:39:40.050Z,324
2016-12-14T07:40:40.033Z,336
2016-12-14T07:41:40.024Z,392
2016-12-14T07:42:40.001Z,420
2016-12-14T07:43:39.996Z,396
2016-12-14T07:44:39.978Z,364
2016-12-14T07:45:39.968Z,380
2016-12-14T07:46:39.957Z,408
2016-12-14T07:47:39.941Z,468
2016-12-14T07:48:39.921Z,480
2016-12-14T07:49:39.907Z,504
2016-12-14T07:50:39.925Z,508
2016-12-14T07:51:39.881Z,508
2016-12-14T07:52:39.891Z,516
2016-12-14T07:53:39.854Z,520
2016-12-14T07:54:39.840Z,540
2016-12-14T07:55:39.822Z,508
2016-12-14T07:56:39.825Z,472
2016-12-14T07:57:39.795Z,448
2016-12-14T07:58:39.807Z,452
2016-12-14T07:59:39.767Z,460
2016-12-14T08:00:39.749Z,440
2016-12-14T08:01:39.739Z,444
2016-12-14T08:02:39.728Z,424
2016-12-14T08:03:39.707Z,408
2016-12-14T08:04:39.698Z,400
2016-12-14T08:05:39.994Z,436
2016-12-14T08:06:39.667Z,476
2016-12-14T08:07:39.653Z,516
2016-12-14T08:08:39.640Z,544
2016-12-14T08:09:39.625Z,596
2016-12-14T08:10:39.611Z,608
2016-12-14T08:11:39.915Z,600
2016-12-14T08:12:39.611Z,636
2016-12-14T08:13:39.566Z,636
2016-12-14T08:14:39.553Z,684
2016-12-14T08:15:39.537Z,700
2016-12-14T08:16:39.527Z,704
2016-12-14T08:17:39.509Z,704
2016-12-14T08:18:39.497Z,712
2016-12-14T08:19:39.482Z,708
2016-12-14T08:20:39.470Z,688
2016-12-14T08:21:39.451Z,692
2016-12-14T08:22:39.444Z,672
2016-12-14T08:23:39.427Z,636
2016-12-14T08:24:39.407Z,592
2016-12-14T08:25:39.395Z,568
2016-12-14T08:26:39.380Z,604
2016-12-14T08:27:39.366Z,556
2016-12-14T08:28:39.358Z,512
2016-12-14T08:29:39.339Z,520
2016-12-14T08:30:39.326Z,504
2016-12-14T08:31:39.308Z,516
2016-12-14T08:32:39.301Z,496
2016-12-14T08:33:39.285Z,464
2016-12-14T08:34:39.277Z,444
2016-12-14T08:35:39.261Z,476
2016-12-14T08:36:39.244Z,476
2016-12-14T08:37:39.229Z,476
2016-12-14T08:38:39.219Z,500
2016-12-14T08:39:39.202Z,504
2016-12-14T08:40:39.181Z,520
2016-12-14T08:41:39.175Z,532
2016-12-14T08:42:39.158Z,552
2016-12-14T08:43:39.140Z,544
2016-12-14T08:44:39.128Z,512
2016-12-14T08:45:39.112Z,480
2016-12-14T08:46:39.100Z,460
2016-12-14T08:47:39.083Z,460
2016-12-14T08:48:39.072Z,484
2016-12-14T08:49:39.057Z,536
2016-12-14T08:50:39.041Z,640
2016-12-14T08:51:39.026Z,716
2016-12-14T08:52:39.012Z,804
2016-12-14T08:53:39.000Z,924
2016-12-14T08:54:38.987Z,1000
2016-12-14T08:55:38.982Z,968
2016-12-14T08:56:38.966Z,928
2016-12-14T08:57:38.944Z,868
2016-12-14T08:58:38.933Z,784
2016-12-14T08:59:38.916Z,732
2016-12-14T09:00:38.904Z,660
2016-12-14T09:01:38.888Z,608
2016-12-14T09:02:38.876Z,568
2016-12-14T09:03:38.860Z,564
2016-12-14T09:04:38.851Z,584
2016-12-14T09:05:38.831Z,652
2016-12-14T09:06:38.817Z,712
2016-12-14T09:07:38.804Z,736
2016-12-14T09:08:38.789Z,796
2016-12-14T09:09:38.777Z,836
2016-12-14T09:10:38.772Z,928
2016-12-14T09:11:38.749Z,1208
2016-12-14T09:12:38.741Z,1484
2016-12-14T09:13:38.724Z,1608
2016-12-14T09:14:38.706Z,1580
2016-12-14T09:15:38.694Z,1464
2016-12-14T09:16:38.681Z,1408
2016-12-14T09:17:38.670Z,1184
2016-12-14T09:18:38.966Z,1184
2016-12-14T09:19:38.638Z,1180
2016-12-14T09:20:38.626Z,1288
2016-12-14T09:21:38.609Z,1424
2016-12-14T09:22:38.602Z,1544
2016-12-14T09:23:38.593Z,1728
2016-12-14T09:24:38.572Z,1844
2016-12-14T09:25:38.562Z,1864
2016-12-14T09:26:38.539Z,1836
2016-12-14T09:27:38.528Z,1868
2016-12-14T09:28:38.511Z,2072
2016-12-14T09:29:38.500Z,2364
2016-12-14T09:30:38.484Z,2508
2016-12-14T09:31:38.789Z,2460
2016-12-14T09:32:38.460Z,2476
2016-12-14T09:33:38.444Z,2344
2016-12-14T09:34:38.460Z,2376
2016-12-14T09:35:38.422Z,2564
2016-12-14T09:36:38.406Z,2768
2016-12-14T09:37:38.389Z,2808
2016-12-14T09:38:38.379Z,2720
2016-12-14T09:39:38.397Z,2652
2016-12-14T09:40:38.346Z,2696
2016-12-14T09:41:38.345Z,2664
2016-12-14T09:42:38.322Z,2708
2016-12-14T09:43:38.311Z,3000
2016-12-14T09:44:38.291Z,3032
2016-12-14T09:45:38.283Z,2932
2016-12-14T09:46:38.272Z,2824
2016-12-14T09:47:38.282Z,2780
2016-12-14T09:48:38.237Z,2708
2016-12-14T09:49:38.252Z,2784
2016-12-14T09:50:38.212Z,2896
2016-12-14T09:51:38.201Z,3012
2016-12-14T09:52:38.182Z,3188
2016-12-14T09:53:38.174Z,3068
2016-12-14T09:54:38.157Z,2988
2016-12-14T09:55:38.146Z,2944
2016-12-14T09:56:38.452Z,2892
2016-12-14T09:57:38.119Z,3108
2016-12-14T09:58:38.105Z,3284
2016-12-14T09:59:38.094Z,2424
2016-12-14T10:00:38.085Z,1916
2016-12-14T10:01:38.063Z,1808
2016-12-14T10:02:38.051Z,1768
2016-12-14T10:03:38.040Z,1696
2016-12-14T10:04:38.020Z,1620
2016-12-14T10:05:38.012Z,1648
2016-12-14T10:06:37.997Z,1748
2016-12-14T10:07:37.988Z,2028
2016-12-14T10:08:37.973Z,1896
2016-12-14T10:09:37.956Z,1800
2016-12-14T10:10:37.948Z,2236
2016-12-14T10:11:37.932Z,2680
2016-12-14T10:12:37.919Z,2940
2016-12-14T10:13:37.902Z,2836
2016-12-14T10:14:37.891Z,3316
2016-12-14T10:15:37.876Z,3464
2016-12-14T10:16:37.868Z,2888
2016-12-14T10:17:37.849Z,2516
2016-12-14T10:18:37.842Z,2564
2016-12-14T10:19:37.825Z,2408
2016-12-14T10:20:37.812Z,2372
2016-12-14T10:21:37.803Z,2384
2016-12-14T10:22:37.786Z,2264
2016-12-14T10:23:37.771Z,2192
2016-12-14T10:24:37.764Z,2152
2016-12-14T10:25:37.744Z,2372
2016-12-14T10:26:37.727Z,2456
2016-12-14T10:27:38.038Z,2460
2016-12-14T10:28:37.707Z,2448
2016-12-14T10:29:37.694Z,2492
2016-12-14T10:30:37.679Z,2684
2016-12-14T10:31:37.671Z,3020
2016-12-14T10:32:37.651Z,2912
2016-12-14T10:33:37.645Z,2780
2016-12-14T10:34:37.628Z,2896
2016-12-14T10:35:37.618Z,2892
2016-12-14T10:36:37.605Z,3252
2016-12-14T10:37:37.586Z,3916
2016-12-14T10:38:37.574Z,4276
2016-12-14T10:39:37.560Z,4008
2016-12-14T10:40:37.869Z,3480
2016-12-14T10:41:37.531Z,2964
2016-12-14T10:42:37.520Z,2692
2016-12-14T10:43:37.507Z,2520
2016-12-14T10:44:37.497Z,2368
2016-12-14T10:45:37.477Z,2340
2016-12-14T10:46:37.470Z,2332
2016-12-14T10:47:37.453Z,2308
2016-12-14T10:48:37.440Z,1788
2016-12-14T10:49:37.432Z,1544
2016-12-14T10:50:37.422Z,1372
2016-12-14T10:51:37.409Z,1384
2016-12-14T10:52:37.395Z,1300
2016-12-14T10:53:37.377Z,1348
2016-12-14T10:54:37.365Z,1372
2016-12-14T10:55:37.350Z,1380
2016-12-14T10:56:37.339Z,1332
2016-12-14T10:57:37.332Z,1348
2016-12-14T10:58:37.313Z,1408
2016-12-14T10:59:37.619Z,1568
2016-12-14T11:00:37.286Z,1732
2016-12-14T11:01:37.271Z,1584
2016-12-14T11:02:37.258Z,1392
2016-12-14T11:03:37.247Z,1232
2016-12-14T11:04:37.234Z,1208
2016-12-14T11:05:37.535Z,1220
2016-12-14T11:06:37.205Z,1244
2016-12-14T11:07:37.194Z,1372
2016-12-14T11:08:37.177Z,1560
2016-12-14T11:09:37.167Z,1584
2016-12-14T11:10:37.157Z,1640
2016-12-14T11:11:37.142Z,1732
2016-12-14T11:12:37.137Z,2048
2016-12-14T11:13:37.113Z,2336
2016-12-14T11:14:37.103Z,2424
2016-12-14T11:15:37.098Z,2264
2016-12-14T11:16:37.074Z,1968
2016-12-14T11:17:37.061Z,1864
2016-12-14T11:18:37.050Z,1780
2016-12-14T11:19:37.035Z,1708
2016-12-14T11:20:37.021Z,1664
2016-12-14T11:21:37.009Z,1680
2016-12-14T11:22:37.310Z,1716
2016-12-14T11:23:37.315Z,1652
2016-12-14T11:24:36.969Z,1728
2016-12-14T11:25:36.955Z,1840
2016-12-14T11:26:36.940Z,1920
2016-12-14T11:27:36.930Z,1764
2016-12-14T11:28:36.917Z,1664
2016-12-14T11:29:36.912Z,1612
2016-12-14T11:30:36.888Z,1588
2016-12-14T11:31:36.875Z,1796
2016-12-14T11:32:36.861Z,1944
2016-12-14T11:33:36.858Z,1976
2016-12-14T11:34:36.834Z,1932
2016-12-14T11:35:36.823Z,1808
2016-12-14T11:36:36.809Z,1772
2016-12-14T11:37:36.803Z,1748
2016-12-14T11:38:36.788Z,1616
2016-12-14T11:39:36.772Z,1652
2016-12-14T11:40:36.760Z,1620
2016-12-14T11:41:36.742Z,1620
2016-12-14T11:42:36.735Z,1556
2016-12-14T11:43:36.716Z,1580
2016-12-14T11:44:36.702Z,1640
2016-12-14T11:45:36.697Z,1624
2016-12-14T11:46:36.678Z,1564
2016-12-14T11:47:36.670Z,1460
2016-12-14T11:48:36.649Z,1544
2016-12-14T11:49:36.645Z,1724
2016-12-14T11:50:36.626Z,1680
2016-12-14T11:51:36.611Z,1520
2016-12-14T11:52:36.608Z,1356
2016-12-14T11:53:36.586Z,1224
2016-12-14T11:54:36.571Z,1148
2016-12-14T11:55:36.559Z,1136
2016-12-14T11:56:36.544Z,1164
2016-12-14T11:57:36.535Z,1364
2016-12-14T11:58:36.517Z,1544
2016-12-14T11:59:36.505Z,1684
2016-12-14T12:00:36.499Z,1900
2016-12-14T12:01:36.485Z,2200
2016-12-14T12:02:36.468Z,2540
2016-12-14T12:03:36.454Z,2652
2016-12-14T12:04:36.440Z,2424
2016-12-14T12:05:36.428Z,2164
2016-12-14T12:06:36.410Z,1956
2016-12-14T12:07:36.404Z,1812
2016-12-14T12:08:36.398Z,1752
2016-12-14T12:09:36.449Z,1728
2016-12-14T12:10:36.361Z,1760
2016-12-14T12:11:36.349Z,1788
2016-12-14T12:12:36.334Z,1804
2016-12-14T12:13:36.320Z,1876
2016-12-14T12:14:36.314Z,1892
2016-12-14T12:15:36.323Z,2004
2016-12-14T12:16:36.287Z,2092
2016-12-14T12:17:36.271Z,2188
2016-12-14T12:18:36.253Z,2228
2016-12-14T12:19:36.244Z,2096
2016-12-14T12:20:36.242Z,2004
2016-12-14T12:21:36.221Z,1804
2016-12-14T12:22:36.213Z,1744
2016-12-14T12:23:36.196Z,1676
2016-12-14T12:24:36.182Z,1576
2016-12-14T12:25:36.165Z,1544
2016-12-14T12:26:36.153Z,1488
2016-12-14T12:27:36.140Z,1500
2016-12-14T12:28:36.131Z,1512
2016-12-14T12:29:36.111Z,1504
2016-12-14T12:30:36.099Z,1564
2016-12-14T12:31:36.083Z,1652
2016-12-14T12:32:36.074Z,1632
2016-12-14T12:33:36.374Z,1600
2016-12-14T12:34:36.046Z,1664
2016-12-14T12:35:36.035Z,1704
2016-12-14T12:36:36.019Z,1648
2016-12-14T12:37:36.007Z,1560
2016-12-14T12:38:35.995Z,1472
2016-12-14T12:39:35.989Z,1400
2016-12-14T12:40:36.280Z,1380
2016-12-14T12:41:35.952Z,1324
2016-12-14T12:42:35.941Z,1336
2016-12-14T12:43:35.930Z,1336
2016-12-14T12:44:35.918Z,1420
2016-12-14T12:45:35.904Z,1492
2016-12-14T12:46:35.892Z,1544
2016-12-14T12:47:35.877Z,1560
2016-12-14T12:48:35.866Z,1572
2016-12-14T12:49:35.851Z,1552
2016-12-14T12:50:36.155Z,1612
2016-12-14T12:51:35.828Z,1680
2016-12-14T12:52:35.811Z,1636
2016-12-14T12:53:35.798Z,1556
2016-12-14T12:54:35.786Z,1552
2016-12-14T12:55:35.772Z,1572
2016-12-14T12:56:35.761Z,1568
2016-12-14T12:57:35.747Z,1556
2016-12-14T12:58:36.047Z,1564
2016-12-14T12:59:35.722Z,1504
2016-12-14T13:00:35.710Z,1452
2016-12-14T13:01:35.695Z,1416
2016-12-14T13:02:35.683Z,1428
2016-12-14T13:03:35.670Z,1416
2016-12-14T13:04:35.688Z,1388
2016-12-14T13:05:35.648Z,1296
2016-12-14T13:06:35.628Z,1204
2016-12-14T13:07:35.618Z,1144
2016-12-14T13:08:35.609Z,1120
2016-12-14T13:09:35.591Z,1236
2016-12-14T13:10:35.582Z,1336
2016-12-14T13:11:35.565Z,1364
2016-12-14T13:12:35.554Z,1352
2016-12-14T13:13:35.539Z,1400
2016-12-14T13:14:35.558Z,1452
2016-12-14T13:15:35.510Z,1444
2016-12-14T13:16:35.498Z,1340
2016-12-14T13:17:35.494Z,1240
2016-12-14T13:18:35.486Z,1172
2016-12-14T13:19:35.463Z,1156
2016-12-14T13:20:35.449Z,1148
2016-12-14T13:21:35.436Z,1168
2016-12-14T13:22:35.420Z,1160
2016-12-14T13:23:35.409Z,1120
2016-12-14T13:24:35.399Z,1068
2016-12-14T13:25:35.384Z,1068
2016-12-14T13:26:35.372Z,1052
2016-12-14T13:27:35.353Z,1056
2016-12-14T13:28:35.341Z,1064
2016-12-14T13:29:35.356Z,1108
2016-12-14T13:30:35.317Z,1144
2016-12-14T13:31:35.303Z,1132
2016-12-14T13:32:35.296Z,1128
2016-12-14T13:33:35.589Z,1172
2016-12-14T13:34:35.264Z,1184
2016-12-14T13:35:35.252Z,1212
2016-12-14T13:36:35.247Z,1192
2016-12-14T13:37:35.231Z,1212
2016-12-14T13:38:35.218Z,1276
2016-12-14T13:39:35.208Z,1340
2016-12-14T13:40:35.186Z,1396
2016-12-14T13:41:35.171Z,1412
2016-12-14T13:42:35.161Z,1376
2016-12-14T13:43:35.147Z,1364
2016-12-14T13:44:35.139Z,1380
2016-12-14T13:45:35.127Z,1412
2016-12-14T13:46:35.112Z,1428
2016-12-14T13:47:35.097Z,1432
2016-12-14T13:48:35.084Z,1520
2016-12-14T13:49:35.073Z,1564
2016-12-14T13:50:35.067Z,1584
2016-12-14T13:51:35.370Z,1492
2016-12-14T13:52:35.032Z,1476
2016-12-14T13:53:35.025Z,1376
2016-12-14T13:54:35.005Z,1348
2016-12-14T13:55:34.996Z,1296
2016-12-14T13:56:34.981Z,1248
2016-12-14T13:57:34.970Z,1236
2016-12-14T13:58:34.951Z,1296
2016-12-14T13:59:34.939Z,1244
2016-12-14T14:00:34.936Z,1204
2016-12-14T14:01:34.929Z,1160
2016-12-14T14:02:34.902Z,1120
2016-12-14T14:03:34.889Z,1148
2016-12-14T14:04:34.874Z,1144